createdAt,value
2022-12-14T00:02:30.207Z,-7.83
2022-12-14T00:05:02.287Z,-8.06
2022-12-14T00:07:34.286Z,-8.01
2022-12-14T00:10:06.726Z,-7.98
2022-12-14T00:12:38.698Z,-8.17
2022-12-14T00:15:10.885Z,-8.31
2022-12-14T00:17:42.870Z,-8.37
2022-12-14T00:20:15.317Z,-8.43
2022-12-14T00:22:47.626Z,-8.24
2022-12-14T00:25:19.735Z,-8.44
2022-12-14T00:27:51.877Z,-8.40
2022-12-14T00:30:23.853Z,-8.43
2022-12-14T00:32:55.830Z,-8.88
2022-12-14T00:35:27.781Z,-8.59
2022-12-14T00:37:59.766Z,-8.83
2022-12-14T00:40:31.696Z,-8.65
2022-12-14T00:43:04.362Z,-8.74
2022-12-14T00:45:36.315Z,-8.90
2022-12-14T00:48:08.450Z,-8.75
2022-12-14T00:50:41.264Z,-8.70
2022-12-14T00:53:13.340Z,-8.64
2022-12-14T00:55:49.256Z,-8.68
2022-12-14T00:58:24.311Z,-8.74
2022-12-14T01:01:08.695Z,-8.84
2022-12-14T01:03:41.038Z,-8.75
2022-12-14T01:06:18.547Z,-8.81
2022-12-14T01:08:50.753Z,-8.90
2022-12-14T01:11:22.711Z,-8.94
2022-12-14T01:13:56.176Z,-8.86
2022-12-14T01:16:28.389Z,-8.72
2022-12-14T01:19:01.543Z,-8.78
2022-12-14T01:21:34.047Z,-8.82
2022-12-14T01:24:07.490Z,-8.92
2022-12-14T04:54:02.189Z,-11.77
2022-12-14T04:56:42.873Z,-11.63
2022-12-14T04:59:15.072Z,-11.59
2022-12-14T05:01:52.814Z,-11.46
2022-12-14T05:04:33.455Z,-11.42
2022-12-14T05:07:20.372Z,-11.61
2022-12-14T05:10:10.644Z,-11.51
2022-12-14T05:13:01.073Z,-11.24
2022-12-14T05:15:49.711Z,-11.34
2022-12-14T05:18:22.398Z,-11.25
2022-12-14T05:20:54.394Z,-11.55
2022-12-14T05:23:26.643Z,-11.26
2022-12-14T05:25:58.823Z,-11.44
2022-12-14T05:28:30.770Z,-11.46
2022-12-14T05:31:02.854Z,-11.38
2022-12-14T05:33:35.031Z,-11.45
2022-12-14T05:36:07.445Z,-11.43
2022-12-14T05:38:39.351Z,-11.46
2022-12-14T05:41:11.337Z,-11.34
2022-12-14T05:43:43.328Z,-11.59
2022-12-14T05:46:15.427Z,-11.41
2022-12-14T05:48:49.434Z,-11.79
2022-12-14T05:51:21.778Z,-11.58
2022-12-14T05:53:53.899Z,-11.61
2022-12-14T05:56:26.057Z,-11.49
2022-12-14T05:58:58.307Z,-11.53
2022-12-14T06:01:30.536Z,-11.65
2022-12-14T06:04:02.657Z,-11.58
2022-12-14T06:06:34.744Z,-11.70
2022-12-14T06:09:08.005Z,-11.80
2022-12-14T06:11:41.496Z,-11.82
2022-12-14T06:14:14.219Z,-11.39
2022-12-14T06:16:47.401Z,-11.53
2022-12-14T06:19:19.426Z,-11.34
2022-12-14T06:21:51.654Z,-11.43
2022-12-14T06:24:23.615Z,-11.40
2022-12-14T06:26:55.558Z,-11.44
2022-12-14T06:29:28.240Z,-11.52
2022-12-14T06:32:01.748Z,-11.76
2022-12-14T06:34:38.540Z,-11.27
2022-12-14T06:37:12.068Z,-11.34
2022-12-14T06:39:45.672Z,-11.26
2022-12-14T06:42:24.714Z,-11.60
2022-12-14T06:44:56.598Z,-11.30
2022-12-14T06:47:28.761Z,-11.27
2022-12-14T06:50:00.701Z,-11.17
2022-12-14T06:52:32.713Z,-11.35
2022-12-14T06:55:05.359Z,-11.39
2022-12-14T06:57:37.318Z,-11.15
2022-12-14T07:00:13.629Z,-11.12
2022-12-14T07:02:45.811Z,-11.16
2022-12-14T07:05:17.972Z,-11.17
2022-12-14T07:07:50.060Z,-10.91
2022-12-14T07:10:22.039Z,-11.09
2022-12-14T07:12:54.025Z,-11.05
2022-12-14T07:15:26.007Z,-10.96
2022-12-14T07:17:58.291Z,-11.13
2022-12-14T07:20:30.167Z,-11.03
2022-12-14T07:23:02.286Z,-11.05
2022-12-14T07:25:34.276Z,-11.00
2022-12-14T07:28:06.521Z,-10.96
2022-12-14T07:30:38.472Z,-10.72
2022-12-14T07:33:10.659Z,-10.65
2022-12-14T07:35:42.635Z,-10.69
2022-12-14T07:38:14.726Z,-10.49
2022-12-14T07:40:46.893Z,-10.61
2022-12-14T07:43:19.220Z,-10.29
2022-12-14T07:45:51.201Z,-10.30
2022-12-14T07:48:23.188Z,-10.60
2022-12-14T07:50:55.593Z,-10.16
2022-12-14T07:53:27.961Z,-10.01
2022-12-14T07:56:05.334Z,-9.87
2022-12-14T07:58:37.565Z,-9.89
2022-12-14T08:01:09.618Z,-9.70
2022-12-14T08:03:43.781Z,-9.75
2022-12-14T08:06:17.241Z,-9.61
2022-12-14T08:08:50.365Z,-9.58
2022-12-14T08:11:29.316Z,-9.82
2022-12-14T08:14:03.737Z,-9.81
2022-12-14T08:16:35.852Z,-9.42
2022-12-14T08:19:07.884Z,-9.38
2022-12-14T08:21:41.044Z,-9.39
2022-12-14T08:24:14.250Z,-9.33
2022-12-14T08:26:49.117Z,-9.25
2022-12-14T08:29:22.713Z,-9.19
2022-12-14T08:31:58.509Z,-8.96
2022-12-14T08:34:30.685Z,-8.95
2022-12-14T08:37:02.678Z,-8.98
2022-12-14T08:39:34.706Z,-9.01
2022-12-14T08:42:06.668Z,-8.71
2022-12-14T08:44:38.609Z,-8.64
2022-12-14T08:47:10.572Z,-8.66
2022-12-14T08:49:42.574Z,-8.32
2022-12-14T08:52:14.514Z,-8.37
2022-12-14T08:54:46.635Z,-8.35
2022-12-14T08:57:18.507Z,-8.27
2022-12-14T09:00:05.766Z,-8.22
2022-12-14T09:02:38.505Z,-8.15
2022-12-14T09:05:11.046Z,-8.12
2022-12-14T09:07:43.038Z,-8.09
2022-12-14T09:10:15.766Z,-7.81
2022-12-14T09:12:47.867Z,-7.93
2022-12-14T09:15:19.904Z,-7.88
2022-12-14T09:17:51.867Z,-7.83
2022-12-14T09:20:23.943Z,-7.65
2022-12-14T09:22:56.146Z,-7.80
2022-12-14T09:25:28.130Z,-7.56
2022-12-14T09:28:00.039Z,-7.48
2022-12-14T09:30:31.978Z,-7.31
2022-12-14T09:33:04.027Z,-7.32
2022-12-14T09:35:35.992Z,-7.55
2022-12-14T09:38:08.024Z,-7.26
2022-12-14T09:40:43.061Z,-7.27
2022-12-14T09:43:43.759Z,-7.01
2022-12-14T09:46:35.585Z,-7.07
2022-12-14T09:49:34.770Z,-6.93
2022-12-14T09:52:13.418Z,-6.82
2022-12-14T09:54:49.739Z,-6.76
2022-12-14T09:57:25.260Z,-6.63
2022-12-14T09:59:57.256Z,-6.45
2022-12-14T10:02:46.765Z,-6.34
2022-12-14T10:05:34.179Z,-6.24
2022-12-14T10:08:45.346Z,-6.10
2022-12-14T10:11:32.999Z,-6.12
2022-12-14T10:14:31.179Z,-6.02
2022-12-14T10:17:30.326Z,-5.92
2022-12-14T10:20:17.600Z,-5.87
2022-12-14T10:22:52.992Z,-6.11
2022-12-14T10:25:37.628Z,-5.97
2022-12-14T10:28:21.630Z,-6.02
2022-12-14T10:30:58.599Z,-6.14
2022-12-14T10:33:31.931Z,-5.87
2022-12-14T10:36:26.124Z,-6.07
2022-12-14T10:39:02.628Z,-5.54
2022-12-14T10:41:43.320Z,-5.46
2022-12-14T10:45:09.615Z,-5.31
2022-12-14T10:47:52.562Z,-5.04
2022-12-14T10:50:50.054Z,-5.11
2022-12-14T10:53:33.488Z,-5.09
2022-12-14T10:56:25.817Z,-5.06
2022-12-14T10:59:26.780Z,-5.11
2022-12-14T11:02:04.689Z,-5.04
2022-12-14T11:04:45.029Z,-5.07
2022-12-14T11:07:19.353Z,-5.05
2022-12-14T11:09:51.389Z,-5.01
2022-12-14T11:12:28.374Z,-5.04
2022-12-14T11:15:03.466Z,-4.87
2022-12-14T11:17:43.662Z,-4.72
2022-12-14T11:20:21.223Z,-4.84
2022-12-14T11:22:59.438Z,-4.84
2022-12-14T11:25:43.495Z,-5.14
2022-12-14T11:28:15.442Z,-4.65
2022-12-14T11:31:33.057Z,-4.55
2022-12-14T11:34:31.020Z,-4.58
2022-12-14T11:37:25.758Z,-4.98
2022-12-14T11:40:05.276Z,-4.64
2022-12-14T11:42:37.574Z,-4.68
2022-12-14T11:45:31.906Z,-4.91
2022-12-14T11:48:16.121Z,-4.75
2022-12-14T11:50:49.845Z,-4.78
2022-12-14T11:53:23.519Z,-4.67
2022-12-14T11:55:59.688Z,-5.11
2022-12-14T11:58:54.619Z,-4.79
2022-12-14T12:01:27.403Z,-4.86
2022-12-14T12:04:00.895Z,-4.89
2022-12-14T12:06:33.164Z,-4.90
2022-12-14T12:09:30.482Z,-5.04
2022-12-14T12:12:02.443Z,-5.06
2022-12-14T12:14:38.868Z,-4.98
2022-12-14T12:17:27.203Z,-4.96
2022-12-14T12:19:59.288Z,-4.97
2022-12-14T12:22:32.220Z,-4.87
2022-12-14T12:28:12.669Z,-4.92
2022-12-14T12:30:51.318Z,-5.07
2022-12-14T12:33:30.430Z,-4.97
2022-12-14T12:36:05.924Z,-5.05
2022-12-14T12:38:49.770Z,-5.09
2022-12-14T12:41:26.229Z,-5.16
2022-12-14T12:44:49.756Z,-5.24
2022-12-14T12:47:41.418Z,-5.22
2022-12-14T12:50:21.932Z,-5.18
2022-12-14T12:53:02.701Z,-5.18
2022-12-14T12:55:42.389Z,-5.12
2022-12-14T12:58:27.936Z,-5.17
2022-12-14T13:01:05.043Z,-5.42
2022-12-14T13:03:46.141Z,-5.43
2022-12-14T13:06:24.136Z,-5.41
2022-12-14T13:09:02.393Z,-5.44
2022-12-14T13:11:39.638Z,-5.68
2022-12-14T13:14:29.335Z,-5.52
2022-12-14T13:17:06.106Z,-5.62
2022-12-14T13:19:54.761Z,-6.20
2022-12-14T13:22:30.210Z,-5.94
2022-12-14T13:25:57.757Z,-5.60
2022-12-14T13:28:47.793Z,-5.68
2022-12-14T13:31:29.024Z,-5.70
2022-12-14T13:34:23.893Z,-5.77
2022-12-14T13:37:23.323Z,-5.78
2022-12-14T13:40:13.981Z,-5.84
2022-12-14T13:42:53.245Z,-5.95
2022-12-14T13:45:32.808Z,-6.18
2022-12-14T13:48:09.478Z,-6.16
2022-12-14T13:50:56.081Z,-6.00
2022-12-14T13:53:35.381Z,-6.10
2022-12-14T13:56:08.934Z,-6.29
2022-12-14T13:58:43.525Z,-6.16
2022-12-14T14:01:54.811Z,-6.20
2022-12-14T14:04:31.804Z,-6.30
2022-12-14T14:07:22.697Z,-6.28
2022-12-14T14:10:05.033Z,-6.36
2022-12-14T14:12:39.693Z,-6.53
2022-12-14T14:15:32.935Z,-6.43
2022-12-14T14:18:16.079Z,-6.44
2022-12-14T14:21:14.213Z,-6.51
2022-12-14T14:23:59.744Z,-6.55
2022-12-14T14:26:34.461Z,-6.69
2022-12-14T14:29:23.846Z,-6.67
2022-12-14T14:31:57.406Z,-6.64
2022-12-14T14:34:45.137Z,-6.66
2022-12-14T14:37:20.203Z,-6.61
2022-12-14T14:40:18.756Z,-6.61
2022-12-14T14:43:06.773Z,-6.90
2022-12-14T14:45:50.706Z,-6.70
2022-12-14T14:48:34.761Z,-6.69
2022-12-14T14:51:21.303Z,-6.97
2022-12-14T14:55:10.698Z,-6.76
2022-12-14T14:57:38.784Z,-6.78
2022-12-14T15:00:11.590Z,-6.83
2022-12-14T15:02:44.703Z,-6.96
2022-12-14T15:08:29.767Z,-6.89
2022-12-14T15:11:12.342Z,-7.17
2022-12-14T15:13:51.998Z,-7.26
2022-12-14T15:16:29.776Z,-7.31
2022-12-14T15:19:26.814Z,-7.18
2022-12-14T15:22:14.448Z,-7.23
2022-12-14T15:24:49.959Z,-7.43
2022-12-14T15:27:32.477Z,-7.39
2022-12-14T15:30:13.598Z,-7.26
2022-12-14T15:32:59.602Z,-7.33
2022-12-14T15:35:38.469Z,-7.67
2022-12-14T15:38:20.897Z,-7.31
2022-12-14T15:41:13.335Z,-7.23
2022-12-14T15:43:47.109Z,-7.20
2022-12-14T15:46:32.149Z,-7.21
2022-12-14T15:49:09.187Z,-7.25
2022-12-14T15:51:43.941Z,-7.17
2022-12-14T15:54:21.390Z,-7.43
2022-12-14T15:57:00.813Z,-7.21
2022-12-14T15:59:36.181Z,-7.10
2022-12-14T16:02:38.430Z,-7.14
2022-12-14T16:05:17.263Z,-7.02
2022-12-14T16:07:54.552Z,-7.04
2022-12-14T16:10:35.064Z,-7.12
2022-12-14T16:13:15.228Z,-6.95
2022-12-14T16:15:47.712Z,-7.11
2022-12-14T16:18:22.116Z,-7.13
2022-12-14T16:21:01.021Z,-6.80
2022-12-14T16:23:39.244Z,-6.82
2022-12-14T16:26:15.440Z,-6.74
2022-12-14T16:28:48.040Z,-6.74
2022-12-14T16:31:22.709Z,-6.81
2022-12-14T16:34:10.037Z,-6.73
2022-12-14T16:36:48.180Z,-6.82
2022-12-14T16:39:40.126Z,-6.79
2022-12-14T16:42:25.514Z,-6.76
2022-12-14T16:44:57.637Z,-7.02
2022-12-14T16:47:35.312Z,-6.65
2022-12-14T16:53:25.531Z,-6.71
2022-12-14T16:56:15.571Z,-6.69
2022-12-14T16:58:59.354Z,-6.54
2022-12-14T17:01:45.950Z,-6.55
2022-12-14T17:04:20.164Z,-6.83
2022-12-14T17:06:54.301Z,-6.58
2022-12-14T17:09:29.298Z,-6.99
2022-12-14T17:12:10.213Z,-6.79
2022-12-14T17:14:49.061Z,-6.71
2022-12-14T17:17:33.748Z,-6.64
2022-12-14T17:20:13.569Z,-6.50
2022-12-14T17:22:49.681Z,-6.50
2022-12-14T17:25:21.946Z,-6.63
2022-12-14T17:27:54.634Z,-7.13
2022-12-14T17:30:26.839Z,-6.85
2022-12-14T17:32:59.023Z,-6.65
2022-12-14T17:35:32.590Z,-7.03
2022-12-14T17:38:13.453Z,-6.45
2022-12-14T17:40:47.094Z,-6.60
2022-12-14T17:43:22.495Z,-6.82
2022-12-14T17:45:54.878Z,-6.63
2022-12-14T17:48:28.623Z,-6.49
2022-12-14T17:51:01.639Z,-6.57
2022-12-14T17:53:34.971Z,-6.56
2022-12-14T17:56:07.114Z,-6.29
2022-12-14T17:58:39.239Z,-6.39
2022-12-14T18:01:16.272Z,-6.48
2022-12-14T18:03:48.900Z,-6.68
2022-12-14T18:06:20.879Z,-6.69
2022-12-14T18:08:52.870Z,-6.40
2022-12-14T18:11:27.334Z,-6.15
2022-12-14T18:13:59.675Z,-6.62
2022-12-14T18:16:31.739Z,-6.48
2022-12-14T18:19:03.882Z,-6.21
2022-12-14T18:21:35.886Z,-6.24
2022-12-14T18:24:12.982Z,-6.60
2022-12-14T18:26:46.292Z,-6.24
2022-12-14T18:29:19.975Z,-6.10
2022-12-14T18:31:52.527Z,-6.11
2022-12-14T18:34:24.779Z,-6.32
2022-12-14T18:36:56.782Z,-6.31
2022-12-14T18:39:28.784Z,-6.77
2022-12-14T18:42:00.652Z,-6.03
2022-12-14T18:44:32.642Z,-6.81
2022-12-14T18:47:20.753Z,-6.69
2022-12-14T18:49:56.693Z,-6.01
2022-12-14T18:52:28.881Z,-5.95
2022-12-14T18:55:01.021Z,-5.84
2022-12-14T18:57:33.017Z,-5.80
2022-12-14T19:00:05.480Z,-5.88
2022-12-14T19:02:37.612Z,-5.84
2022-12-14T19:05:10.740Z,-5.78
2022-12-14T19:07:43.738Z,-5.84
2022-12-14T19:10:21.773Z,-5.68
2022-12-14T19:12:54.218Z,-5.64
2022-12-14T19:15:32.784Z,-5.80
2022-12-14T19:18:04.855Z,-5.83
2022-12-14T19:20:36.972Z,-5.67
2022-12-14T19:23:15.722Z,-5.61
2022-12-14T19:25:48.086Z,-5.51
2022-12-14T19:28:32.056Z,-5.76
2022-12-14T19:31:05.579Z,-5.57
2022-12-14T19:33:38.086Z,-5.44
2022-12-14T19:36:10.592Z,-5.43
2022-12-14T19:38:42.603Z,-5.33
2022-12-14T19:41:17.950Z,-5.49
2022-12-14T19:43:50.198Z,-5.83
2022-12-14T19:46:24.156Z,-5.51
2022-12-14T19:48:57.770Z,-5.51
2022-12-14T19:51:30.813Z,-5.44
2022-12-14T19:54:04.235Z,-5.88
2022-12-14T19:56:36.356Z,-5.43
2022-12-14T19:59:08.357Z,-5.62
2022-12-14T20:01:44.816Z,-5.94
2022-12-14T20:04:19.980Z,-5.68
2022-12-14T20:06:51.985Z,-6.10
2022-12-14T20:09:24.167Z,-5.84
2022-12-14T20:11:56.274Z,-5.52
2022-12-14T20:14:28.440Z,-5.79
2022-12-14T20:17:00.441Z,-5.58
2022-12-14T20:19:32.446Z,-5.71
2022-12-14T20:22:05.391Z,-5.66
2022-12-14T20:24:38.572Z,-6.08
2022-12-14T20:27:11.034Z,-5.55
2022-12-14T20:29:43.504Z,-5.59
2022-12-14T20:32:15.454Z,-5.80
2022-12-14T20:34:47.415Z,-5.73
2022-12-14T20:37:19.442Z,-5.72
2022-12-14T20:39:51.398Z,-5.86
2022-12-14T20:42:25.971Z,-5.65
2022-12-14T20:45:01.324Z,-5.68
2022-12-14T20:47:37.386Z,-5.62
2022-12-14T20:50:12.250Z,-5.59
2022-12-14T20:52:44.483Z,-5.51
2022-12-14T20:55:21.410Z,-5.68
2022-12-14T20:57:54.630Z,-5.50
2022-12-14T21:00:26.997Z,-5.41
2022-12-14T21:02:59.127Z,-5.33
2022-12-14T21:05:31.125Z,-5.61
2022-12-14T21:08:03.102Z,-5.67
2022-12-14T21:10:35.830Z,-5.78
2022-12-14T21:13:08.156Z,-5.55
2022-12-14T21:15:40.186Z,-5.73
2022-12-14T21:18:12.172Z,-5.52
2022-12-14T21:20:44.757Z,-5.57
2022-12-14T21:23:21.285Z,-5.79
2022-12-14T21:25:53.291Z,-5.76
2022-12-14T21:28:30.393Z,-5.82
2022-12-14T21:31:05.748Z,-5.62
2022-12-14T21:33:37.692Z,-5.53
2022-12-14T21:36:10.426Z,-5.68
2022-12-14T21:38:42.374Z,-5.55
2022-12-14T21:41:32.682Z,-5.82
2022-12-14T21:44:04.948Z,-5.61
2022-12-14T21:46:37.499Z,-5.74
2022-12-14T21:49:10.053Z,-5.40
2022-12-14T21:51:42.209Z,-5.68
2022-12-14T21:54:15.793Z,-5.44
2022-12-14T21:57:06.552Z,-5.90
2022-12-14T21:59:46.706Z,-5.59
2022-12-14T22:02:25.004Z,-5.33
2022-12-14T22:04:57.280Z,-5.57
2022-12-14T22:07:31.749Z,-5.53
2022-12-14T22:10:04.328Z,-5.54
2022-12-14T22:12:36.289Z,-5.50
2022-12-14T22:15:08.927Z,-5.60
2022-12-14T22:17:40.894Z,-5.57
2022-12-14T22:20:13.626Z,-5.51
2022-12-14T22:22:45.627Z,-5.56
2022-12-14T22:25:17.597Z,-5.56
2022-12-14T22:27:49.636Z,-5.51
2022-12-14T22:30:24.004Z,-5.63
2022-12-14T22:32:59.125Z,-5.78
2022-12-14T22:35:31.148Z,-5.85
2022-12-14T22:38:03.127Z,-5.79
2022-12-14T22:40:35.392Z,-5.65
2022-12-14T22:43:07.334Z,-5.41
2022-12-14T22:45:39.328Z,-5.54
2022-12-14T22:48:11.273Z,-5.45
2022-12-14T22:50:43.831Z,-5.79
2022-12-14T22:53:15.841Z,-5.81
2022-12-14T22:55:49.724Z,-5.88
2022-12-14T22:58:23.050Z,-5.52
2022-12-14T23:00:58.216Z,-5.43
2022-12-14T23:03:30.783Z,-5.40
2022-12-14T23:06:03.216Z,-5.46
2022-12-14T23:08:35.221Z,-5.58
2022-12-14T23:11:25.718Z,-5.99
2022-12-14T23:14:16.524Z,-5.61
2022-12-14T23:17:07.026Z,-5.65
2022-12-14T23:20:04.248Z,-5.33
2022-12-14T23:22:56.002Z,-5.73
2022-12-14T23:25:46.764Z,-5.47
2022-12-14T23:28:37.430Z,-5.65
2022-12-14T23:31:28.231Z,-5.62
2022-12-14T23:34:19.026Z,-5.51
2022-12-14T23:37:10.504Z,-5.72
2022-12-14T23:40:03.459Z,-5.58
2022-12-14T23:42:54.031Z,-5.76
2022-12-14T23:45:44.472Z,-5.54
2022-12-14T23:48:35.105Z,-5.72
2022-12-14T23:51:25.343Z,-5.67
2022-12-14T23:54:15.985Z,-5.66
2022-12-14T23:57:06.102Z,-5.60
2022-12-14T23:59:56.721Z,-5.76
